Time;durP1;ratioP1;P1;durP2;ratioP2;P2;SDS_P1;SDS_P2;PMS_P1;PMS_P2;Temp;Humidity;BMP_temperature;BMP_pressure;BME280_temperature;BME280_humidity;BME280_pressure;Samples;Min_cycle;Max_cycle;Signal;HPM_P1;HPM_P2
2023/08/15 00:02:13;;;;;;;12.15;6.82;;;;;;;20.95;100.00;98739.19;5048851;28;20636;-74
2023/08/15 00:04:38;;;;;;;8.45;6.85;;;;;;;20.86;100.00;98744.41;5051450;22;20045;-74
2023/08/15 00:07:04;;;;;;;10.50;5.53;;;;;;;20.87;100.00;98758.97;5046650;28;20464;-73
2023/08/15 00:09:30;;;;;;;5.93;5.07;;;;;;;20.80;100.00;98753.72;5033963;28;20044;-74
2023/08/15 00:11:56;;;;;;;7.47;4.45;;;;;;;20.67;100.00;98733.09;5043928;28;20478;-74
2023/08/15 00:14:21;;;;;;;14.57;5.85;;;;;;;20.69;100.00;98743.81;5039311;28;20036;-74
2023/08/15 00:16:46;;;;;;;9.18;6.32;;;;;;;20.65;100.00;98742.72;5014906;28;20032;-74
2023/08/15 00:19:12;;;;;;;11.95;7.22;;;;;;;20.60;100.00;98738.00;5026907;28;20117;-73
2023/08/15 00:21:37;;;;;;;10.02;6.93;;;;;;;20.61;100.00;98738.84;5023865;28;20104;-74
2023/08/15 00:24:02;;;;;;;12.10;6.43;;;;;;;20.62;100.00;98745.97;5027812;28;20030;-73
2023/08/15 00:26:28;;;;;;;11.07;7.03;;;;;;;20.59;100.00;98752.84;5031194;28;20914;-71
2023/08/15 00:28:53;;;;;;;12.75;7.22;;;;;;;20.56;100.00;98754.19;5024302;28;20030;-73
2023/08/15 00:31:18;;;;;;;6.95;5.85;;;;;;;20.51;100.00;98751.44;5021060;28;20112;-72
2023/08/15 00:33:44;;;;;;;11.02;6.05;;;;;;;20.43;100.00;98748.38;5000323;28;20112;-73
2023/08/15 00:36:09;;;;;;;11.75;6.07;;;;;;;20.38;100.00;98737.34;5028391;28;20069;-69
2023/08/15 00:38:34;;;;;;;9.82;6.50;;;;;;;20.38;100.00;98738.16;5017851;28;20029;-72
2023/08/15 00:41:00;;;;;;;12.65;6.47;;;;;;;20.42;100.00;98741.22;5038565;28;20030;-72
2023/08/15 00:43:25;;;;;;;8.52;6.15;;;;;;;20.40;100.00;98733.22;5026898;28;20118;-72
2023/08/15 00:45:50;;;;;;;10.65;7.82;;;;;;;20.46;100.00;98742.31;5027409;28;20024;-73
2023/08/15 00:48:16;;;;;;;9.45;7.97;;;;;;;20.40;100.00;98730.50;5006757;28;20022;-73
2023/08/15 00:50:45;;;;;;;10.85;8.43;;;;;;;20.44;100.00;98739.84;5027180;28;20026;-72
2023/08/15 00:53:11;;;;;;;14.40;8.75;;;;;;;20.40;100.00;98735.97;5017575;28;20035;-73
2023/08/15 00:55:36;;;;;;;11.02;8.35;;;;;;;20.41;100.00;98740.41;5030534;28;20037;-73
2023/08/15 00:58:02;;;;;;;14.10;8.23;;;;;;;20.50;100.00;98747.00;5028381;28;20049;-73
2023/08/15 01:00:27;;;;;;;12.82;8.25;;;;;;;20.48;100.00;98740.13;5030461;28;20498;-72
2023/08/15 01:02:53;;;;;;;16.67;8.13;;;;;;;20.52;100.00;98746.75;5007668;28;20026;-73
2023/08/15 01:05:20;;;;;;;15.50;8.20;;;;;;;20.56;100.00;98747.88;5025017;28;20477;-73
2023/08/15 01:07:45;;;;;;;13.98;7.68;;;;;;;20.53;100.00;98738.22;5010440;28;20025;-72
2023/08/15 01:10:10;;;;;;;9.35;7.45;;;;;;;20.48;100.00;98740.97;5026601;28;20022;-73
2023/08/15 01:13:08;;;;;;;10.20;6.95;;;;;;;20.50;100.00;98738.78;5019394;28;20545;-72
2023/08/15 01:15:41;;;;;;;11.87;7.60;;;;;;;20.43;100.00;98729.13;4988388;28;20041;-73
2023/08/15 01:18:16;;;;;;;14.15;7.28;;;;;;;20.44;100.00;98728.03;5019033;28;20277;-73
2023/08/15 01:20:42;;;;;;;10.02;6.90;;;;;;;20.36;100.00;98730.22;5014841;28;20030;-71
2023/08/15 01:23:08;;;;;;;9.07;6.57;;;;;;;20.31;100.00;98724.69;5029171;28;20032;-73
2023/08/15 01:25:42;;;;;;;10.63;6.88;;;;;;;20.27;100.00;98715.31;5021767;28;20068;-72
2023/08/15 01:28:12;;;;;;;8.23;6.22;;;;;;;20.31;100.00;98732.13;5032250;28;20375;-72
2023/08/15 01:30:53;;;;;;;9.43;6.93;;;;;;;20.29;100.00;98726.88;5032545;28;20014;-73
2023/08/15 01:33:28;;;;;;;12.02;6.43;;;;;;;20.25;100.00;98720.28;5030378;28;20386;-73
2023/08/15 01:36:02;;;;;;;8.68;5.95;;;;;;;20.20;100.00;98734.00;5027509;28;20026;-73
2023/08/15 01:39:00;;;;;;;9.57;6.38;;;;;;;20.27;100.00;98723.56;5027388;28;20029;-73
2023/08/15 01:41:26;;;;;;;9.43;7.32;;;;;;;20.23;100.00;98727.97;5022214;28;20087;-73
2023/08/15 01:43:54;;;;;;;14.60;7.32;;;;;;;20.17;100.00;98722.69;5030231;28;20033;-73
2023/08/15 01:46:19;;;;;;;10.77;6.55;;;;;;;20.13;100.00;98719.69;5024475;28;20021;-74
2023/08/15 01:48:45;;;;;;;9.82;6.97;;;;;;;20.02;100.00;98715.25;5024694;28;20043;-73
2023/08/15 01:51:11;;;;;;;9.63;6.53;;;;;;;19.97;100.00;98720.69;5021855;28;20079;-74
2023/08/15 01:53:37;;;;;;;7.90;6.40;;;;;;;19.95;100.00;98729.19;5014583;28;20037;-75
2023/08/15 01:56:02;;;;;;;9.07;7.15;;;;;;;19.88;100.00;98714.88;5029118;28;20071;-72
2023/08/15 01:58:28;;;;;;;13.35;7.32;;;;;;;19.85;100.00;98716.22;5028014;28;20061;-73
2023/08/15 02:00:53;;;;;;;10.25;8.48;;;;;;;19.85;100.00;98718.97;5031165;28;20026;-73
2023/08/15 02:03:18;;;;;;;10.77;8.07;;;;;;;19.78;100.00;98712.91;5005200;28;20487;-73
2023/08/15 02:05:44;;;;;;;13.32;7.07;;;;;;;19.82;100.00;98725.00;5029592;28;20455;-73
2023/08/15 02:08:09;;;;;;;11.35;8.85;;;;;;;19.80;100.00;98729.91;5025523;28;20026;-72
2023/08/15 02:10:34;;;;;;;11.52;8.27;;;;;;;19.73;100.00;98717.53;5025944;28;20022;-73
2023/08/15 02:13:00;;;;;;;11.13;8.07;;;;;;;19.72;100.00;98733.16;5029509;28;20052;-73
2023/08/15 02:15:25;;;;;;;16.52;9.10;;;;;;;19.73;100.00;98734.84;5007696;28;20021;-72
2023/08/15 02:17:50;;;;;;;12.43;7.82;;;;;;;19.63;100.00;98721.03;5017564;28;20091;-73
2023/08/15 02:20:16;;;;;;;15.18;8.27;;;;;;;19.73;100.00;98731.25;5017981;28;20022;-73
2023/08/15 02:22:41;;;;;;;13.07;7.32;;;;;;;19.67;100.00;98724.91;5001974;28;20120;-72
2023/08/15 02:25:07;;;;;;;10.25;7.03;;;;;;;19.60;100.00;98713.31;5029660;28;20029;-73
2023/08/15 02:27:32;;;;;;;19.33;7.80;;;;;;;19.64;100.00;98722.66;5013628;28;20602;-73
2023/08/15 02:29:57;;;;;;;17.27;9.80;;;;;;;19.73;100.00;98726.59;5013349;28;20474;-73
2023/08/15 02:32:23;;;;;;;12.98;8.93;;;;;;;19.78;100.00;98732.13;5022127;28;20021;-74
2023/08/15 02:34:49;;;;;;;12.32;9.65;;;;;;;19.78;100.00;98734.88;5031680;28;20562;-73
2023/08/15 02:37:15;;;;;;;10.77;8.40;;;;;;;19.77;100.00;98738.69;5025615;28;20076;-73
2023/08/15 02:39:41;;;;;;;11.75;7.68;;;;;;;19.73;100.00;98726.59;5027837;28;20028;-74
2023/08/15 02:42:06;;;;;;;12.50;7.40;;;;;;;19.67;100.00;98724.91;5020607;28;20025;-73
2023/08/15 02:44:32;;;;;;;9.27;7.03;;;;;;;19.63;100.00;98732.00;5026360;28;20806;-73
2023/08/15 02:46:57;;;;;;;9.40;7.47;;;;;;;19.78;100.00;98726.63;5026350;28;20052;-73
2023/08/15 02:49:22;;;;;;;10.77;8.07;;;;;;;19.87;100.00;98736.00;5019142;28;20049;-73
2023/08/15 02:51:48;;;;;;;18.58;8.82;;;;;;;19.93;100.00;98729.44;5014083;28;20115;-73
2023/08/15 02:54:13;;;;;;;11.63;8.07;;;;;;;19.97;100.00;98740.75;5020282;28;20028;-73
2023/08/15 02:56:38;;;;;;;10.25;7.82;;;;;;;19.95;100.00;98739.34;5019787;28;20026;-72
2023/08/15 02:59:03;;;;;;;15.75;8.52;;;;;;;19.91;100.00;98728.06;5022164;28;20479;-73
2023/08/15 03:01:29;;;;;;;11.48;8.40;;;;;;;19.92;100.00;98733.31;5027887;28;20053;-73
2023/08/15 03:03:54;;;;;;;10.85;7.38;;;;;;;19.89;100.00;98731.09;5026039;28;20031;-73
2023/08/15 03:06:20;;;;;;;10.25;6.78;;;;;;;19.79;100.00;98720.03;5013818;28;20033;-73
2023/08/15 03:08:47;;;;;;;12.40;6.65;;;;;;;19.79;100.00;98717.31;5020697;28;20030;-73
2023/08/15 03:11:12;;;;;;;8.88;6.43;;;;;;;19.78;100.00;98712.91;5022836;28;20021;-73
2023/08/15 03:13:37;;;;;;;12.73;6.53;;;;;;;19.84;100.00;98720.06;5019678;28;20097;-73
2023/08/15 03:16:03;;;;;;;9.30;6.18;;;;;;;19.83;100.00;98723.94;5018521;28;20613;-74
2023/08/15 03:18:28;;;;;;;7.93;6.18;;;;;;;19.88;100.00;98721.19;5007778;28;20480;-74
2023/08/15 03:20:58;;;;;;;14.32;6.03;;;;;;;19.95;100.00;98720.13;5019510;28;20049;-73
2023/08/15 03:23:24;;;;;;;10.05;7.25;;;;;;;20.02;100.00;98726.22;5016340;28;20026;-73
2023/08/15 03:26:01;;;;;;;10.60;6.93;;;;;;;20.08;100.00;98722.41;5018184;28;20052;-73
2023/08/15 03:28:33;;;;;;;11.40;7.00;;;;;;;20.10;100.00;98733.94;5025249;28;20040;-77
2023/08/15 03:31:08;;;;;;;9.93;6.90;;;;;;;20.06;100.00;98713.59;5022679;28;20037;-78
2023/08/15 03:33:34;;;;;;;12.70;8.50;;;;;;;20.14;100.00;98726.81;5020978;28;20029;-77
2023/08/15 03:36:00;;;;;;;10.23;7.28;;;;;;;20.13;100.00;98716.94;5004906;28;20047;-77
2023/08/15 03:38:25;;;;;;;12.40;7.03;;;;;;;20.14;100.00;98713.91;5018755;28;20539;-78
2023/08/15 03:41:03;;;;;;;10.57;6.93;;;;;;;20.01;100.00;98717.13;5002750;28;20120;-78
2023/08/15 03:43:36;;;;;;;7.53;6.13;;;;;;;19.97;100.00;98734.44;5014416;28;20026;-78
2023/08/15 03:46:02;;;;;;;9.13;5.90;;;;;;;19.96;100.00;98747.31;5010608;28;20475;-78
2023/08/15 03:48:31;;;;;;;6.95;5.60;;;;;;;19.70;100.00;98746.31;5019769;28;20029;-78
2023/08/15 03:50:58;;;;;;;7.68;5.03;;;;;;;19.66;100.00;98747.94;4999001;28;20348;-79
2023/08/15 03:53:23;;;;;;;11.18;7.03;;;;;;;19.61;100.00;98748.72;5014258;28;20030;-78
2023/08/15 03:55:49;;;;;;;8.25;6.50;;;;;;;19.59;100.00;98759.13;5008603;28;20025;-78
2023/08/15 03:58:16;;;;;;;11.73;7.05;;;;;;;19.47;100.00;98739.28;5029647;28;20026;-78
2023/08/15 04:00:41;;;;;;;12.82;7.53;;;;;;;19.63;100.00;98764.94;5010177;28;20022;-78
2023/08/15 04:03:07;;;;;;;15.48;8.43;;;;;;;19.59;100.00;98759.13;5017351;28;20029;-78
2023/08/15 04:05:32;;;;;;;15.52;7.85;;;;;;;19.55;100.00;98743.47;5013540;28;20074;-79
2023/08/15 04:07:57;;;;;;;11.63;8.25;;;;;;;19.49;100.00;98765.38;5029782;28;20059;-74
2023/08/15 04:10:22;;;;;;;9.02;7.35;;;;;;;19.38;100.00;98760.88;5017043;28;20022;-76
2023/08/15 04:12:48;;;;;;;9.10;7.50;;;;;;;19.49;100.00;98781.00;5009187;28;20112;-77
2023/08/15 04:15:13;;;;;;;10.50;7.15;;;;;;;19.40;100.00;98785.31;5018248;28;20467;-76
2023/08/15 04:17:38;;;;;;;9.45;7.30;;;;;;;19.45;100.00;98794.41;5018427;28;20029;-75
2023/08/15 04:20:05;;;;;;;9.38;6.90;;;;;;;19.46;100.00;98796.06;5024491;28;20141;-77
2023/08/15 04:22:31;;;;;;;12.30;8.02;;;;;;;19.54;100.00;98802.16;5029947;28;20056;-77
2023/08/15 04:24:56;;;;;;;10.65;7.95;;;;;;;19.52;100.00;98804.34;5026911;28;20418;-77
2023/08/15 04:27:21;;;;;;;10.25;8.90;;;;;;;19.52;100.00;98805.19;5010340;28;20063;-75
2023/08/15 04:29:47;;;;;;;11.30;8.93;;;;;;;19.64;100.00;98814.06;5026947;28;20032;-74
2023/08/15 04:32:12;;;;;;;12.20;9.25;;;;;;;19.65;100.00;98798.44;5028230;28;20539;-77
2023/08/15 04:34:37;;;;;;;17.88;10.55;;;;;;;19.72;100.00;98796.31;5022411;28;20108;-74
2023/08/15 04:37:02;;;;;;;15.40;10.02;;;;;;;19.78;100.00;98802.66;5026685;28;20033;-73
2023/08/15 04:39:28;;;;;;;17.23;9.52;;;;;;;19.85;100.00;98809.56;5025147;28;20337;-73
2023/08/15 04:41:53;;;;;;;13.38;9.50;;;;;;;19.81;100.00;98796.66;5024174;28;20064;-77
2023/08/15 04:44:18;;;;;;;14.38;10.38;;;;;;;19.86;100.00;98805.75;5016067;28;20075;-75
2023/08/15 04:46:44;;;;;;;13.23;10.15;;;;;;;19.87;100.00;98804.66;5033209;28;20056;-76
2023/08/15 04:49:09;;;;;;;20.83;10.82;;;;;;;19.93;100.00;98798.09;5025053;28;20382;-74
2023/08/15 04:51:34;;;;;;;17.65;10.35;;;;;;;19.85;100.00;98770.31;5011539;28;20032;-74
2023/08/15 04:54:00;;;;;;;16.20;9.93;;;;;;;20.05;100.00;98797.91;5023706;28;20026;-76
2023/08/15 04:56:25;;;;;;;13.32;9.05;;;;;;;20.13;100.00;98793.84;5027903;28;20471;-75
2023/08/15 04:58:50;;;;;;;14.75;9.65;;;;;;;20.17;100.00;98794.13;5019961;28;20156;-75
2023/08/15 05:01:16;;;;;;;13.40;10.00;;;;;;;20.31;100.00;98798.88;5028407;28;20033;-75
2023/08/15 05:03:41;;;;;;;13.98;10.18;;;;;;;20.39;100.00;98792.06;5015082;28;20479;-76
2023/08/15 05:06:07;;;;;;;16.48;10.35;;;;;;;20.50;100.00;98795.66;5002209;28;20029;-76
2023/08/15 05:08:32;;;;;;;13.63;9.65;;;;;;;20.51;100.00;98778.06;5026386;28;20051;-75
2023/08/15 05:10:59;;;;;;;14.68;10.30;;;;;;;20.54;100.00;98783.06;5014449;28;20060;-75
2023/08/15 05:13:24;;;;;;;12.95;9.88;;;;;;;20.64;100.00;98794.09;5027123;28;20068;-76
2023/08/15 05:15:49;;;;;;;11.95;9.55;;;;;;;20.84;100.00;98809.03;5019312;28;20033;-77
2023/08/15 05:18:16;;;;;;;12.82;8.57;;;;;;;21.14;100.00;98802.75;5026690;28;20025;-78
2023/08/15 05:20:42;;;;;;;14.98;7.93;;;;;;;21.38;100.00;98803.94;5029715;28;20025;-72
2023/08/15 05:23:07;;;;;;;10.95;6.10;;;;;;;21.70;100.00;98799.25;5026498;28;20498;-75
2023/08/15 05:25:32;;;;;;;8.07;5.57;;;;;;;21.94;100.00;98783.78;5044632;28;20022;-77
2023/08/15 05:28:02;;;;;;;8.05;5.93;;;;;;;22.04;100.00;98771.94;5023280;28;20029;-79
2023/08/15 05:30:51;;;;;;;8.02;5.88;;;;;;;22.23;100.00;98763.91;5011528;28;20029;-79
2023/08/15 05:34:01;;;;;;;10.70;5.15;;;;;;;22.64;100.00;98775.59;5039095;28;20014;-79
2023/08/15 05:43:37;;;;;;;7.25;5.90;;;;;;;23.51;100.00;98760.44;4984225;28;20054;-78
2023/08/15 05:49:17;;;;;;;9.93;5.03;;;;;;;23.97;100.00;98762.78;5050892;28;20048;-63
2023/08/15 05:51:42;;;;;;;8.27;5.82;;;;;;;24.04;100.00;98766.03;5035598;28;20042;-63
2023/08/15 05:54:08;;;;;;;6.78;5.05;;;;;;;24.16;100.00;98771.97;5024799;28;20111;-63
2023/08/15 05:56:33;;;;;;;6.05;4.95;;;;;;;24.20;100.00;98770.25;5032968;28;20025;-63
2023/08/15 05:58:59;;;;;;;9.85;5.75;;;;;;;23.96;100.00;98781.31;5018118;28;20079;-64
2023/08/15 06:01:25;;;;;;;6.63;4.93;;;;;;;24.19;100.00;98787.97;5034700;28;20028;-63
2023/08/15 06:03:51;;;;;;;7.90;5.10;;;;;;;24.47;100.00;98780.78;5034682;28;20397;-63
2023/08/15 06:06:16;;;;;;;6.85;5.72;;;;;;;24.85;100.00;98769.75;5048132;23;20564;-57
2023/08/15 06:08:43;;;;;;;8.25;5.82;;;;;;;25.30;100.00;98777.72;5031707;28;20107;-56
2023/08/15 06:11:08;;;;;;;5.47;4.65;;;;;;;26.59;100.00;98761.25;5025667;28;20053;-56
2023/08/15 06:13:34;;;;;;;7.18;4.50;;;;;;;28.88;100.00;98740.94;5029494;28;20033;-57
2023/08/15 06:16:00;;;;;;;8.10;4.95;;;;;;;31.16;100.00;98732.34;5031022;28;20079;-57
2023/08/15 06:18:25;;;;;;;5.45;4.65;;;;;;;31.93;100.00;98734.75;5021923;28;20598;-57
2023/08/15 06:20:50;;;;;;;6.18;4.28;;;;;;;33.13;100.00;98742.66;5021700;28;20443;-57
2023/08/15 06:23:16;;;;;;;6.40;3.88;;;;;;;34.10;100.00;98738.97;5023326;28;20021;-57
2023/08/15 06:25:41;;;;;;;6.07;3.85;;;;;;;33.79;100.00;98735.75;5029646;28;20079;-57
2023/08/15 06:28:08;;;;;;;7.15;3.65;;;;;;;33.38;100.00;98746.22;5028373;28;20424;-57
2023/08/15 06:30:34;;;;;;;6.57;3.78;;;;;;;33.35;100.00;98755.34;5026681;28;20040;-57
2023/08/15 06:32:59;;;;;;;6.97;4.47;;;;;;;33.12;100.00;98748.66;5027580;28;20143;-57
2023/08/15 06:35:28;;;;;;;6.55;4.55;;;;;;;33.11;100.00;98758.22;5026719;28;20070;-57
2023/08/15 06:37:54;;;;;;;7.35;4.05;;;;;;;33.36;100.00;98762.59;5024986;28;20083;-57
2023/08/15 06:40:19;;;;;;;11.05;4.38;;;;;;;34.47;100.00;98759.16;5027743;28;20115;-57
2023/08/15 06:42:45;;;;;;;6.13;4.07;;;;;;;35.18;100.00;98762.06;5033730;28;20124;-57
2023/08/15 06:45:16;;;;;;;7.45;3.67;;;;;;;36.17;92.70;98757.63;5025717;28;20048;-57
2023/08/15 06:47:42;;;;;;;8.02;3.63;;;;;;;36.50;82.18;98763.78;5028611;28;20048;-57
2023/08/15 06:50:11;;;;;;;9.27;3.60;;;;;;;35.28;91.49;98761.47;5020810;28;20436;-56
2023/08/15 06:52:36;;;;;;;;;;;;;;;33.72;100.00;98746.78;5032510;28;20044;-57
2023/08/15 06:55:06;;;;;;;5.70;4.47;;;;;;;32.29;100.00;98740.38;5027564;28;20743;-57
2023/08/15 06:57:33;;;;;;;6.93;4.13;;;;;;;30.61;100.00;98747.34;5031261;28;20476;-58
2023/08/15 06:59:58;;;;;;;5.43;3.78;;;;;;;30.16;100.00;98754.28;5032966;28;20479;-58
2023/08/15 07:02:23;;;;;;;7.28;4.15;;;;;;;31.77;100.00;98757.75;5017787;28;20037;-58
2023/08/15 07:04:50;;;;;;;7.47;4.00;;;;;;;31.35;100.00;98757.00;5026074;28;20396;-58
2023/08/15 07:07:16;;;;;;;6.25;4.15;;;;;;;32.31;100.00;98762.44;5026303;28;20028;-58
2023/08/15 07:09:41;;;;;;;4.15;3.40;;;;;;;35.21;100.00;98750.88;5029418;28;20083;-57
2023/08/15 07:12:07;;;;;;;6.68;4.07;;;;;;;36.64;88.69;98750.75;5031588;28;20039;-58
2023/08/15 07:14:33;;;;;;;9.15;4.03;;;;;;;37.14;82.13;98758.34;5021054;28;20033;-57
2023/08/15 07:16:59;;;;;;;9.15;4.60;;;;;;;37.38;77.51;98757.03;5029273;28;20145;-62
2023/08/15 07:19:24;;;;;;;7.65;4.07;;;;;;;37.74;72.90;98760.31;5025370;28;20464;-58
2023/08/15 07:21:50;;;;;;;7.43;4.90;;;;;;;38.78;68.52;98764.94;5032438;28;20040;-58
2023/08/15 07:24:17;;;;;;;8.43;4.63;;;;;;;39.51;64.37;98766.97;5031376;28;20060;-58
2023/08/15 07:26:43;;;;;;;5.63;4.18;;;;;;;39.75;64.29;98771.09;5019572;28;20037;-58
2023/08/15 07:29:08;;;;;;;6.40;4.45;;;;;;;38.08;68.61;98761.09;5026035;28;20444;-58
2023/08/15 07:31:34;;;;;;;4.68;3.63;;;;;;;40.15;62.47;98764.31;5049149;28;20032;-58
2023/08/15 07:33:59;;;;;;;7.50;3.60;;;;;;;40.87;59.55;98753.00;5029628;28;20033;-58
2023/08/15 07:36:25;;;;;;;5.35;4.13;;;;;;;40.34;58.46;98748.97;5023305;28;20021;-58
2023/08/15 07:38:50;;;;;;;7.25;3.53;;;;;;;41.43;56.72;98739.06;5023931;28;20400;-58
2023/08/15 07:41:15;;;;;;;7.20;3.45;;;;;;;41.18;56.44;98748.47;5028207;28;20017;-58
2023/08/15 07:43:41;;;;;;;6.38;3.08;;;;;;;43.15;52.00;98749.91;5027159;28;20033;-56
2023/08/15 07:46:06;;;;;;;6.25;3.65;;;;;;;43.49;50.14;98760.50;5029513;28;20048;-56
2023/08/15 07:48:31;;;;;;;5.60;3.63;;;;;;;40.88;53.70;98763.94;5014994;28;20480;-56
2023/08/15 07:50:57;;;;;;;4.15;2.92;;;;;;;42.95;51.24;98755.44;5051437;28;20025;-56
2023/08/15 07:53:23;;;;;;;9.05;3.42;;;;;;;43.68;48.57;98756.19;5050128;28;20112;-56
2023/08/15 07:55:49;;;;;;;6.50;3.72;;;;;;;41.79;52.24;98751.03;5023482;28;20456;-56
2023/08/15 07:58:14;;;;;;;7.10;3.80;;;;;;;40.04;56.73;98760.69;5026494;28;20820;-56
2023/08/15 08:00:42;;;;;;;8.18;4.18;;;;;;;37.67;61.10;98756.19;5025202;28;20020;-56
2023/08/15 08:03:07;;;;;;;5.72;3.20;;;;;;;36.75;67.99;98761.38;5029973;28;20060;-56
2023/08/15 08:05:33;;;;;;;5.97;3.90;;;;;;;35.77;74.93;98758.88;5031266;28;20076;-56
2023/08/15 08:07:58;;;;;;;8.02;5.07;;;;;;;35.32;89.00;98762.38;5028487;28;20036;-56
2023/08/15 08:10:24;;;;;;;6.43;4.07;;;;;;;36.60;82.14;98751.91;5032334;28;20033;-56
2023/08/15 08:12:49;;;;;;;10.85;4.35;;;;;;;38.08;71.81;98744.16;5031688;28;20048;-55
2023/08/15 08:15:15;;;;;;;8.40;4.00;;;;;;;38.39;68.20;98742.00;5021441;28;20025;-56
2023/08/15 08:17:40;;;;;;;10.02;4.07;;;;;;;36.01;78.34;98742.00;5038278;28;20021;-56
2023/08/15 08:20:11;;;;;;;6.95;4.35;;;;;;;33.75;100.00;98743.25;5018601;28;20053;-56
2023/08/15 08:22:36;;;;;;;7.55;4.85;;;;;;;32.08;100.00;98740.50;5025512;28;20075;-56
2023/08/15 08:25:11;;;;;;;5.97;4.50;;;;;;;31.98;100.00;98735.34;5033644;28;20457;-55
2023/08/15 08:27:36;;;;;;;8.52;4.30;;;;;;;31.83;100.00;98738.78;5034852;28;20499;-56
2023/08/15 08:30:02;;;;;;;8.45;5.45;;;;;;;30.92;100.00;98747.81;5024726;28;20052;-56
2023/08/15 08:32:28;;;;;;;9.70;5.18;;;;;;;31.20;100.00;98750.06;5031181;28;20024;-56
2023/08/15 08:34:53;;;;;;;14.30;5.78;;;;;;;30.89;100.00;98756.03;5037555;28;20448;-57
2023/08/15 08:37:19;;;;;;;10.00;5.55;;;;;;;30.56;100.00;98751.13;5028430;28;20021;-57
2023/08/15 08:39:44;;;;;;;7.47;5.50;;;;;;;30.47;100.00;98750.34;5024665;28;20396;-57
2023/08/15 08:42:10;;;;;;;12.98;5.72;;;;;;;30.77;100.00;98757.56;5021844;28;21674;-57
2023/08/15 08:44:36;;;;;;;7.18;5.38;;;;;;;32.06;100.00;98744.81;5018227;28;20021;-57
2023/08/15 08:47:02;;;;;;;9.48;5.20;;;;;;;32.50;100.00;98745.91;5032839;28;20107;-58
2023/08/15 08:49:29;;;;;;;7.60;5.03;;;;;;;32.25;100.00;98745.06;5027212;28;20111;-57
2023/08/15 08:51:59;;;;;;;7.90;5.70;;;;;;;31.60;100.00;98760.75;5018186;28;20025;-57
2023/08/15 08:54:24;;;;;;;7.95;6.00;;;;;;;31.16;100.00;98758.31;5036747;28;20025;-57
2023/08/15 08:56:55;;;;;;;9.15;6.15;;;;;;;31.45;100.00;98759.41;5027457;28;20021;-57
2023/08/15 08:59:23;;;;;;;8.57;5.57;;;;;;;31.26;100.00;98756.25;5033432;28;20112;-57
2023/08/15 09:01:48;;;;;;;11.02;5.80;;;;;;;30.17;100.00;98764.25;5032130;28;20021;-57
2023/08/15 09:04:14;;;;;;;9.82;5.90;;;;;;;29.48;100.00;98763.25;5032273;28;20477;-58
2023/08/15 09:06:39;;;;;;;13.10;6.80;;;;;;;28.84;100.00;98766.63;5033129;28;20059;-57
2023/08/15 09:09:06;;;;;;;12.23;5.90;;;;;;;29.16;100.00;98767.38;5032997;28;20056;-57
2023/08/15 09:11:35;;;;;;;6.68;5.60;;;;;;;29.73;100.00;98766.34;5030345;28;20029;-57
2023/08/15 09:14:03;;;;;;;7.32;5.90;;;;;;;29.83;100.00;98767.97;5028678;28;20041;-57
2023/08/15 09:16:29;;;;;;;10.93;5.50;;;;;;;30.48;100.00;98774.34;5033877;28;20100;-57
2023/08/15 09:18:54;;;;;;;10.18;4.85;;;;;;;30.63;100.00;98772.94;5035849;28;20052;-57
2023/08/15 09:21:21;;;;;;;5.93;4.57;;;;;;;30.91;100.00;98776.09;5020427;28;20021;-57
2023/08/15 09:23:46;;;;;;;9.27;4.70;;;;;;;31.11;100.00;98771.69;5032617;28;20082;-57
2023/08/15 09:26:16;;;;;;;8.65;4.80;;;;;;;31.74;100.00;98766.03;5033721;28;20033;-57
2023/08/15 09:28:43;;;;;;;5.60;4.32;;;;;;;32.49;100.00;98765.88;5033789;28;20122;-57
2023/08/15 09:31:10;;;;;;;7.18;4.10;;;;;;;32.91;100.00;98768.41;5028349;28;20017;-57
2023/08/15 09:33:37;;;;;;;5.78;4.15;;;;;;;31.92;100.00;98778.69;5028572;28;20029;-57
2023/08/15 09:36:05;;;;;;;8.70;4.75;;;;;;;31.30;100.00;98783.19;5031723;28;20056;-57
2023/08/15 09:38:31;;;;;;;8.30;3.73;;;;;;;30.16;100.00;98782.16;5027087;28;20357;-57
2023/08/15 09:40:56;;;;;;;6.60;4.20;;;;;;;30.29;100.00;98785.94;5046900;28;20299;-57
2023/08/15 09:43:22;;;;;;;10.25;4.63;;;;;;;30.59;100.00;98781.19;5024482;28;20461;-58
2023/08/15 09:45:48;;;;;;;7.63;4.43;;;;;;;30.78;100.00;98781.56;5029614;28;20103;-57
2023/08/15 09:48:17;;;;;;;10.40;4.32;;;;;;;30.68;100.00;98784.75;5032715;28;20440;-57
2023/08/15 09:50:43;;;;;;;5.22;3.58;;;;;;;31.23;100.00;98785.69;5032911;28;20052;-57
2023/08/15 09:53:09;;;;;;;7.45;4.30;;;;;;;31.04;100.00;98794.56;5025085;28;20532;-57
2023/08/15 09:55:36;;;;;;;5.25;3.45;;;;;;;31.26;100.00;98789.78;5035916;28;20124;-56
2023/08/15 09:58:03;;;;;;;6.40;4.20;;;;;;;31.83;100.00;98794.72;5030000;28;20068;-56
2023/08/15 10:00:29;;;;;;;7.28;3.70;;;;;;;31.96;100.00;98796.44;5033494;28;20017;-50
2023/08/15 10:03:18;;;;;;;5.10;3.72;;;;;;;32.33;100.00;98790.91;5027479;28;20056;-50
2023/08/15 10:05:48;;;;;;;5.05;4.15;;;;;;;31.88;100.00;98791.72;5026730;28;20116;-50
2023/08/15 10:08:15;;;;;;;12.60;4.50;;;;;;;31.22;100.00;98804.44;5027816;28;20035;-50
2023/08/15 10:10:42;;;;;;;10.18;4.03;;;;;;;30.70;100.00;98793.59;5048409;28;20484;-50
2023/08/15 10:13:09;;;;;;;8.43;4.15;;;;;;;30.23;100.00;98790.84;5025731;28;20063;-50
2023/08/15 10:15:36;;;;;;;7.28;4.15;;;;;;;29.99;100.00;98802.56;5032128;28;20032;-50
2023/08/15 10:18:02;;;;;;;6.15;4.20;;;;;;;30.11;100.00;98796.31;5026444;28;20424;-50
2023/08/15 10:20:35;;;;;;;5.95;3.95;;;;;;;30.06;100.00;98790.91;5018240;28;20036;-50
2023/08/15 10:23:01;;;;;;;6.28;4.13;;;;;;;30.14;100.00;98793.66;5018685;28;20059;-50
2023/08/15 10:25:26;;;;;;;8.77;4.63;;;;;;;30.06;100.00;98786.13;5023685;28;20025;-50
2023/08/15 10:27:54;;;;;;;9.43;4.70;;;;;;;30.02;100.00;98789.91;5026688;28;20029;-50
2023/08/15 10:30:41;;;;;;;6.85;4.70;;;;;;;29.85;100.00;98797.19;5024192;28;20033;-50
2023/08/15 10:33:16;;;;;;;6.70;4.43;;;;;;;29.69;100.00;98790.50;5032880;28;21368;-50
2023/08/15 10:35:50;;;;;;;9.05;4.45;;;;;;;29.49;100.00;98800.31;5028348;28;20376;-50
2023/08/15 10:38:20;;;;;;;8.90;4.40;;;;;;;29.60;100.00;98804.41;5029596;28;20080;-50
2023/08/15 10:40:46;;;;;;;8.68;4.55;;;;;;;29.86;100.00;98804.38;5019141;28;20027;-50
2023/08/15 10:43:14;;;;;;;6.93;4.97;;;;;;;29.78;100.00;98804.41;5030355;28;20025;-50
2023/08/15 10:45:46;;;;;;;7.07;4.80;;;;;;;29.76;100.00;98804.72;5029756;28;20025;-50
2023/08/15 10:48:12;;;;;;;6.75;4.70;;;;;;;30.13;100.00;98807.97;5032205;28;20400;-50
2023/08/15 10:50:48;;;;;;;9.98;4.18;;;;;;;30.49;100.00;98806.69;5026986;28;20086;-50
2023/08/15 10:53:14;;;;;;;5.22;4.07;;;;;;;30.73;100.00;98803.28;5024391;28;20021;-50
2023/08/15 10:55:40;;;;;;;5.63;4.20;;;;;;;31.60;100.00;98803.53;5025761;28;20064;-51
2023/08/15 10:58:11;;;;;;;6.68;4.18;;;;;;;31.74;100.00;98808.81;5031814;28;20456;-50
2023/08/15 11:00:39;;;;;;;7.80;4.25;;;;;;;32.12;100.00;98804.16;5026189;28;20476;-50
2023/08/15 11:03:06;;;;;;;6.43;4.32;;;;;;;31.77;100.00;98805.31;5024652;28;20029;-50
2023/08/15 11:05:32;;;;;;;9.15;4.38;;;;;;;31.65;100.00;98806.13;5019819;28;20052;-50
2023/08/15 11:08:15;;;;;;;6.30;3.95;;;;;;;32.16;100.00;98819.13;5026507;28;20484;-50
2023/08/15 11:10:44;;;;;;;6.60;4.22;;;;;;;31.76;100.00;98819.69;5023222;28;20024;-50
2023/08/15 11:13:10;;;;;;;7.43;4.25;;;;;;;32.67;100.00;98823.31;5025386;28;20142;-53
2023/08/15 11:15:36;;;;;;;6.18;4.10;;;;;;;32.82;100.00;98812.53;5030575;28;20515;-53
2023/08/15 11:18:02;;;;;;;8.57;4.38;;;;;;;34.44;100.00;98818.88;5025476;28;20036;-53
2023/08/15 11:20:29;;;;;;;4.72;3.50;;;;;;;36.63;100.00;98822.44;5023778;28;20420;-53
2023/08/15 11:22:56;;;;;;;8.07;3.40;;;;;;;40.40;74.11;98814.59;5033407;28;20119;-53
2023/08/15 11:25:21;;;;;;;10.30;3.78;;;;;;;42.27;63.26;98818.59;5026182;28;20032;-53
2023/08/15 11:27:50;;;;;;;5.05;2.90;;;;;;;45.23;56.42;98821.00;5027708;28;20029;-53
2023/08/15 11:30:17;;;;;;;7.60;2.95;;;;;;;46.83;49.74;98810.06;5020049;28;20104;-53
2023/08/15 11:32:42;;;;;;;3.80;2.83;;;;;;;44.66;48.45;98804.84;5035898;28;20024;-53